createdAt,value
2019-02-10T00:02:00.746Z,27.80
2019-02-10T00:04:30.531Z,28.20
2019-02-10T00:07:00.336Z,28.07
2019-02-10T00:09:30.983Z,29.30
2019-02-10T00:12:00.779Z,29.83
2019-02-10T00:14:30.562Z,30.67
2019-02-10T00:17:00.417Z,30.67
2019-02-10T00:19:30.181Z,29.23
2019-02-10T00:22:00.120Z,29.80
2019-02-10T00:24:30.616Z,29.83
2019-02-10T00:27:00.354Z,29.17
2019-02-10T00:29:30.202Z,28.03
2019-02-10T00:31:59.963Z,28.80
2019-02-10T00:34:29.783Z,28.27
2019-02-10T00:36:59.630Z,28.03
2019-02-10T00:39:29.393Z,28.07
2019-02-10T00:41:59.305Z,27.47
2019-02-10T00:44:29.083Z,29.67
2019-02-10T00:46:59.086Z,27.90
2019-02-10T00:49:28.836Z,26.93
2019-02-10T00:52:00.656Z,27.10
2019-02-10T00:54:30.504Z,27.10
2019-02-10T00:57:00.362Z,26.23
2019-02-10T00:59:30.179Z,27.70
2019-02-10T01:02:00.361Z,26.03
2019-02-10T01:04:30.186Z,25.63
2019-02-10T01:07:00.002Z,27.17
2019-02-10T01:09:29.758Z,26.27
2019-02-10T01:11:59.529Z,26.87
2019-02-10T01:14:29.310Z,27.00
2019-02-10T01:16:59.148Z,27.10
2019-02-10T01:19:28.871Z,26.90
2019-02-10T01:21:58.696Z,26.33
2019-02-10T01:24:28.464Z,26.53
2019-02-10T01:27:00.032Z,27.27
2019-02-10T01:29:29.839Z,25.40
2019-02-10T01:31:59.597Z,26.20
2019-02-10T01:34:29.582Z,25.83
2019-02-10T01:36:59.851Z,25.77
2019-02-10T01:39:29.611Z,28.07
2019-02-10T01:41:59.353Z,25.60
2019-02-10T01:44:29.112Z,26.90
2019-02-10T01:46:59.161Z,25.67
2019-02-10T01:49:28.903Z,26.90
2019-02-10T01:51:58.702Z,25.70
2019-02-10T01:54:28.493Z,26.60
2019-02-10T01:56:58.347Z,25.53
2019-02-10T01:59:28.119Z,25.37
2019-02-10T02:01:57.917Z,25.67
2019-02-10T02:04:27.722Z,25.37
2019-02-10T02:06:58.175Z,26.93
2019-02-10T02:09:28.069Z,26.10
2019-02-10T02:11:57.945Z,27.83
2019-02-10T02:14:27.753Z,27.07
2019-02-10T02:16:57.553Z,26.33
2019-02-10T02:19:28.284Z,26.47
2019-02-10T02:21:57.992Z,26.83
2019-02-10T02:24:27.925Z,26.20
2019-02-10T02:26:57.676Z,26.13
2019-02-10T02:29:27.810Z,25.50
2019-02-10T02:31:57.876Z,26.47
2019-02-10T02:34:27.762Z,26.57
2019-02-10T02:36:57.443Z,26.07
2019-02-10T02:39:27.199Z,25.70
2019-02-10T02:41:56.999Z,25.40
2019-02-10T02:44:27.571Z,26.13
2019-02-10T02:46:57.446Z,25.47
2019-02-10T02:49:27.171Z,25.83
2019-02-10T02:51:56.932Z,25.87
2019-02-10T02:54:26.717Z,25.93
2019-02-10T02:56:56.435Z,24.67
2019-02-10T02:59:26.231Z,25.10
2019-02-10T03:01:56.373Z,24.30
2019-02-10T03:04:26.178Z,24.80
2019-02-10T03:06:55.991Z,24.67
2019-02-10T03:09:25.798Z,25.97
2019-02-10T03:11:55.659Z,25.07
2019-02-10T03:14:25.630Z,24.83
2019-02-10T03:16:55.534Z,24.57
2019-02-10T03:19:25.399Z,25.17
2019-02-10T03:21:55.230Z,24.77
2019-02-10T03:24:25.018Z,25.57
2019-02-10T03:26:54.801Z,25.33
2019-02-10T03:29:24.801Z,24.57
2019-02-10T03:31:54.797Z,26.30
2019-02-10T03:34:24.588Z,26.00
2019-02-10T03:36:54.318Z,25.33
2019-02-10T03:39:24.228Z,26.13
2019-02-10T03:41:54.020Z,26.10
2019-02-10T03:44:23.798Z,25.00
2019-02-10T03:46:53.538Z,24.67
2019-02-10T03:49:23.313Z,26.03
2019-02-10T03:51:53.063Z,25.10
2019-02-10T03:54:23.014Z,27.00
2019-02-10T03:56:52.821Z,27.30
2019-02-10T03:59:22.591Z,27.87
2019-02-10T04:01:52.388Z,29.20
2019-02-10T04:04:22.166Z,30.37
2019-02-10T04:06:52.470Z,31.10
2019-02-10T04:09:22.255Z,30.60
2019-02-10T04:11:52.064Z,30.77
2019-02-10T04:14:21.827Z,29.33
2019-02-10T04:16:51.892Z,30.17
2019-02-10T04:19:21.732Z,30.27
2019-02-10T04:21:51.492Z,29.47
2019-02-10T04:24:21.345Z,28.70
2019-02-10T04:26:51.104Z,27.80
2019-02-10T04:29:21.258Z,28.70
2019-02-10T04:31:51.043Z,29.43
2019-02-10T04:34:20.806Z,30.30
2019-02-10T04:36:50.615Z,28.53
2019-02-10T04:39:21.355Z,26.67
2019-02-10T04:41:51.123Z,27.57
2019-02-10T04:44:20.945Z,30.63
2019-02-10T04:46:51.220Z,31.37
2019-02-10T04:49:20.974Z,31.00
2019-02-10T04:51:50.693Z,31.90
2019-02-10T04:54:20.473Z,31.07
2019-02-10T04:56:50.443Z,30.90
2019-02-10T04:59:20.176Z,30.07
2019-02-10T05:01:50.538Z,31.10
2019-02-10T05:04:20.362Z,31.33
2019-02-10T05:06:50.116Z,30.53
2019-02-10T05:09:19.855Z,31.20
2019-02-10T05:11:49.614Z,31.80
2019-02-10T05:14:19.390Z,33.13
2019-02-10T05:16:49.433Z,32.33
2019-02-10T05:19:19.199Z,31.73
2019-02-10T05:21:49.043Z,31.13
2019-02-10T05:24:18.841Z,31.07
2019-02-10T05:26:48.794Z,31.00
2019-02-10T05:29:18.569Z,33.23
2019-02-10T05:31:48.290Z,31.60
2019-02-10T05:34:18.192Z,31.07
2019-02-10T05:36:47.960Z,30.57
2019-02-10T05:39:18.478Z,30.63
2019-02-10T05:41:48.241Z,30.27
2019-02-10T05:44:17.997Z,30.80
2019-02-10T05:46:47.788Z,29.37
2019-02-10T05:49:17.647Z,30.77
2019-02-10T05:51:47.363Z,29.07
2019-02-10T05:54:17.155Z,29.60
2019-02-10T05:56:47.643Z,29.93
2019-02-10T05:59:17.450Z,29.77
2019-02-10T06:02:08.426Z,29.77
2019-02-10T06:04:41.113Z,29.07
2019-02-10T06:07:16.582Z,29.13
2019-02-10T06:09:46.601Z,30.03
2019-02-10T06:12:16.414Z,29.83
2019-02-10T06:14:46.194Z,29.90
2019-02-10T06:17:16.113Z,43.87
2019-02-10T06:19:45.934Z,38.97
2019-02-10T06:22:16.601Z,32.60
2019-02-10T06:24:46.375Z,29.30
2019-02-10T06:27:16.129Z,27.20
2019-02-10T06:29:45.938Z,25.67
2019-02-10T06:32:15.998Z,26.53
2019-02-10T06:34:45.832Z,27.67
2019-02-10T06:37:16.319Z,28.43
2019-02-10T06:39:46.085Z,26.63
2019-02-10T06:42:15.874Z,27.87
2019-02-10T06:44:45.578Z,28.10
2019-02-10T06:47:15.397Z,29.23
2019-02-10T06:49:46.654Z,28.60
2019-02-10T06:52:17.223Z,29.57
2019-02-10T06:54:55.962Z,29.47
2019-02-10T06:57:25.827Z,139.23
2019-02-10T06:59:57.140Z,33.20
2019-02-10T07:02:31.681Z,29.90
2019-02-10T07:05:01.677Z,27.87
2019-02-10T07:07:31.463Z,28.50
2019-02-10T07:10:01.387Z,28.57
2019-02-10T07:12:50.590Z,29.23
2019-02-10T07:15:56.640Z,29.63
2019-02-10T07:19:02.651Z,28.80
2019-02-10T07:21:34.222Z,29.87
2019-02-10T07:24:23.740Z,35.33
2019-02-10T07:26:54.742Z,33.60
2019-02-10T07:29:30.603Z,40.80
2019-02-10T07:32:00.666Z,34.43
2019-02-10T07:34:51.785Z,32.03
2019-02-10T07:37:42.689Z,35.07
2019-02-10T07:40:31.825Z,35.23
2019-02-10T07:43:27.418Z,33.07
2019-02-10T07:46:16.271Z,33.00
2019-02-10T07:48:58.338Z,29.73
2019-02-10T07:51:33.678Z,36.23
2019-02-10T07:54:17.045Z,30.43
2019-02-10T07:57:09.633Z,29.93
2019-02-10T07:59:45.640Z,30.53
2019-02-10T08:02:18.512Z,30.33
2019-02-10T08:04:51.294Z,28.60
2019-02-10T08:07:44.594Z,30.43
2019-02-10T08:10:35.636Z,31.23
2019-02-10T08:13:28.378Z,30.90
2019-02-10T08:16:01.137Z,31.40
2019-02-10T08:18:59.147Z,31.23
2019-02-10T08:21:38.693Z,32.53
2019-02-10T08:24:23.385Z,32.83
2019-02-10T08:26:56.559Z,32.57
2019-02-10T08:29:38.167Z,33.20
2019-02-10T08:32:16.898Z,33.73
2019-02-10T08:34:58.532Z,59.40
2019-02-10T08:37:37.258Z,32.90
2019-02-10T08:40:22.283Z,33.30
2019-02-10T08:42:57.911Z,32.13
2019-02-10T08:45:33.444Z,32.13
2019-02-10T08:48:28.177Z,32.33
2019-02-10T08:51:19.130Z,31.87
2019-02-10T08:53:48.938Z,31.93
2019-02-10T08:56:18.734Z,32.63
2019-02-10T08:58:48.489Z,33.40
2019-02-10T09:01:18.257Z,32.07
2019-02-10T09:03:47.929Z,33.67
2019-02-10T09:06:17.834Z,32.50
2019-02-10T09:08:47.666Z,32.13
2019-02-10T09:11:17.495Z,34.00
2019-02-10T09:13:47.437Z,32.30
2019-02-10T09:16:18.126Z,32.07
2019-02-10T09:18:47.943Z,32.60
2019-02-10T09:21:17.971Z,32.37
2019-02-10T09:23:47.730Z,30.53
2019-02-10T09:26:18.380Z,34.30
2019-02-10T09:28:48.174Z,42.37
2019-02-10T09:31:17.977Z,32.07
2019-02-10T09:33:48.933Z,29.47
2019-02-10T09:36:18.762Z,29.40
2019-02-10T09:38:48.579Z,30.33
2019-02-10T09:41:18.413Z,30.80
2019-02-10T09:43:48.187Z,31.13
2019-02-10T09:46:21.707Z,28.90
2019-02-10T09:48:51.503Z,28.13
2019-02-10T09:51:21.314Z,29.53
2019-02-10T09:53:51.115Z,30.67
2019-02-10T09:56:20.906Z,30.67
2019-02-10T09:58:50.765Z,36.07
2019-02-10T10:01:20.556Z,35.80
2019-02-10T10:03:50.345Z,28.47
2019-02-10T10:06:20.169Z,27.57
2019-02-10T10:08:50.009Z,27.57
2019-02-10T10:11:19.799Z,27.17
2019-02-10T10:13:49.733Z,27.17
2019-02-10T10:16:19.556Z,24.63
2019-02-10T10:18:49.354Z,23.57
2019-02-10T10:21:19.211Z,25.83
2019-02-10T10:23:49.054Z,27.77
2019-02-10T10:26:18.839Z,25.37
2019-02-10T10:28:48.654Z,21.63
2019-02-10T10:31:18.451Z,20.87
2019-02-10T10:33:48.256Z,20.43
2019-02-10T10:36:18.056Z,21.13
2019-02-10T10:38:47.863Z,19.93
2019-02-10T10:41:17.704Z,19.73
2019-02-10T10:43:47.778Z,20.83
2019-02-10T10:46:17.593Z,19.97
2019-02-10T10:48:47.427Z,19.43
2019-02-10T10:51:17.286Z,19.90
2019-02-10T10:53:47.138Z,14.87
2019-02-10T10:56:16.941Z,14.83
2019-02-10T10:58:46.877Z,14.37
2019-02-10T11:01:16.688Z,14.33
2019-02-10T11:03:46.548Z,15.60
2019-02-10T11:06:16.369Z,14.60
2019-02-10T11:08:46.183Z,26.87
2019-02-10T11:11:16.011Z,17.37
2019-02-10T11:13:45.848Z,15.43
2019-02-10T11:16:15.636Z,15.67
2019-02-10T11:18:45.457Z,16.30
2019-02-10T11:21:15.335Z,15.10
2019-02-10T11:23:45.150Z,15.37
2019-02-10T11:26:14.915Z,15.77
2019-02-10T11:28:44.735Z,16.20
2019-02-10T11:31:14.571Z,16.00
2019-02-10T11:33:44.364Z,16.43
2019-02-10T11:36:14.214Z,16.73
2019-02-10T11:38:44.045Z,16.97
2019-02-10T11:41:13.993Z,16.50
2019-02-10T11:43:43.891Z,16.47
2019-02-10T11:46:13.715Z,16.83
2019-02-10T11:48:43.580Z,16.53
2019-02-10T11:51:13.409Z,16.77
2019-02-10T11:53:43.237Z,16.30
2019-02-10T11:56:13.214Z,17.57
2019-02-10T11:58:43.061Z,17.80
2019-02-10T12:01:12.894Z,15.97
2019-02-10T12:03:42.777Z,15.37
2019-02-10T12:06:12.598Z,17.90
2019-02-10T12:08:42.437Z,16.30
2019-02-10T12:11:12.275Z,16.03
2019-02-10T12:13:42.176Z,16.20
2019-02-10T12:16:12.056Z,16.57
2019-02-10T12:18:42.076Z,16.60
2019-02-10T12:21:11.904Z,16.57
2019-02-10T12:23:41.721Z,24.47
2019-02-10T12:26:11.621Z,19.20
2019-02-10T12:28:41.461Z,16.33
2019-02-10T12:31:11.302Z,16.60
2019-02-10T12:33:41.194Z,15.50
2019-02-10T12:36:11.039Z,16.53
2019-02-10T12:38:40.884Z,16.23
2019-02-10T12:41:10.737Z,14.53
2019-02-10T12:43:40.601Z,16.77
2019-02-10T12:46:10.441Z,16.03
2019-02-10T12:48:40.299Z,15.13
2019-02-10T12:51:10.146Z,14.60
2019-02-10T12:53:40.081Z,26.50
2019-02-10T12:56:09.883Z,26.90
2019-02-10T12:58:39.712Z,17.20
2019-02-10T13:01:09.563Z,15.07
2019-02-10T13:03:39.421Z,14.90
2019-02-10T13:06:09.286Z,15.00
2019-02-10T13:08:40.003Z,15.43
2019-02-10T13:11:09.820Z,13.47
2019-02-10T13:13:39.694Z,14.43
2019-02-10T13:16:10.455Z,13.17
2019-02-10T13:18:40.282Z,14.27
2019-02-10T13:21:10.099Z,14.57
2019-02-10T13:23:40.019Z,13.67
2019-02-10T13:26:09.817Z,16.00
2019-02-10T13:28:39.724Z,16.23
2019-02-10T13:31:09.517Z,17.00
2019-02-10T13:33:39.365Z,22.70
2019-02-10T13:36:09.265Z,25.40
2019-02-10T13:38:39.144Z,19.00
2019-02-10T13:41:08.996Z,18.07
2019-02-10T13:43:38.801Z,17.30
2019-02-10T13:46:08.723Z,17.20
2019-02-10T13:48:38.554Z,16.87
2019-02-10T13:51:08.558Z,19.00
2019-02-10T13:53:38.399Z,17.67
2019-02-10T13:56:08.225Z,18.90
2019-02-10T13:58:38.097Z,18.57
2019-02-10T14:01:08.049Z,19.07
2019-02-10T14:03:39.120Z,18.77
2019-02-10T14:06:08.971Z,20.87
2019-02-10T14:08:39.154Z,20.03
2019-02-10T14:11:09.714Z,19.03
2019-02-10T14:13:39.641Z,19.50
2019-02-10T14:16:09.885Z,19.30
2019-02-10T14:18:39.900Z,30.80
2019-02-10T14:21:09.818Z,27.10
2019-02-10T14:23:39.483Z,24.10
2019-02-10T14:26:10.055Z,20.10
2019-02-10T14:28:41.011Z,19.93
2019-02-10T14:31:12.470Z,17.43
2019-02-10T14:33:43.171Z,18.77
2019-02-10T14:36:13.839Z,18.13
2019-02-10T14:38:45.057Z,18.53
2019-02-10T14:41:19.784Z,17.60
2019-02-10T14:43:49.555Z,17.20
2019-02-10T14:46:19.236Z,16.33
2019-02-10T14:48:49.815Z,17.50
2019-02-10T14:51:20.582Z,17.53
2019-02-10T14:53:50.392Z,16.83
2019-02-10T14:56:21.023Z,18.13
2019-02-10T14:58:50.653Z,16.57
2019-02-10T15:01:21.321Z,14.53
2019-02-10T15:03:51.168Z,16.17
2019-02-10T15:06:20.997Z,15.33
2019-02-10T15:08:50.836Z,23.77
2019-02-10T15:11:20.641Z,13.70
2019-02-10T15:13:50.509Z,15.17
2019-02-10T15:16:22.058Z,17.07
2019-02-10T15:18:51.856Z,16.80
2019-02-10T15:21:21.746Z,15.03
2019-02-10T15:23:51.622Z,16.10
2019-02-10T15:26:21.363Z,16.60
2019-02-10T15:28:51.171Z,15.77
2019-02-10T15:31:21.012Z,18.33
2019-02-10T15:33:50.917Z,18.40
2019-02-10T15:36:20.755Z,16.80
2019-02-10T15:38:50.630Z,15.47
2019-02-10T15:41:20.565Z,16.60
2019-02-10T15:43:50.367Z,21.53
2019-02-10T15:46:20.281Z,17.63
2019-02-10T15:48:50.085Z,16.33
2019-02-10T15:51:28.568Z,18.40
2019-02-10T15:53:51.356Z,17.97
2019-02-10T15:56:21.149Z,16.27
2019-02-10T15:58:50.989Z,14.83
2019-02-10T16:01:21.793Z,16.27
2019-02-10T16:03:51.613Z,17.03
2019-02-10T16:06:21.603Z,16.40
2019-02-10T16:08:52.710Z,16.27
2019-02-10T16:11:22.716Z,26.07
2019-02-10T16:13:52.534Z,16.23
2019-02-10T16:16:22.438Z,17.00
2019-02-10T16:18:52.201Z,27.60
2019-02-10T16:21:21.984Z,20.43
2019-02-10T16:23:51.997Z,12.40
2019-02-10T16:26:21.801Z,12.37
2019-02-10T16:28:51.619Z,14.00
2019-02-10T16:31:21.412Z,12.53
2019-02-10T16:33:51.219Z,14.43
2019-02-10T16:36:21.020Z,8.13
2019-02-10T16:38:50.843Z,9.07
2019-02-10T16:41:22.101Z,12.97
2019-02-10T16:43:51.937Z,34.20
2019-02-10T16:46:22.782Z,13.07
2019-02-10T16:48:52.615Z,5.63
2019-02-10T16:51:22.495Z,6.70
2019-02-10T16:53:52.266Z,11.93
2019-02-10T16:56:22.425Z,5.07
2019-02-10T16:58:52.324Z,5.23
2019-02-10T17:01:22.083Z,4.60
2019-02-10T17:03:51.855Z,9.93
2019-02-10T17:06:21.811Z,6.73
2019-02-10T17:08:51.719Z,8.00
2019-02-10T17:11:22.813Z,9.03
2019-02-10T17:13:52.710Z,12.47
2019-02-10T17:16:22.454Z,9.33
2019-02-10T17:18:52.313Z,8.17
2019-02-10T17:21:23.719Z,8.37
2019-02-10T17:23:53.543Z,7.30
2019-02-10T17:26:23.460Z,8.23
2019-02-10T17:28:53.247Z,10.17
2019-02-10T17:31:23.112Z,3.60
2019-02-10T17:33:52.911Z,3.37
2019-02-10T17:36:22.823Z,3.57
2019-02-10T17:38:52.637Z,5.17
2019-02-10T17:41:25.136Z,3.30
2019-02-10T17:43:54.949Z,4.43
2019-02-10T17:46:24.742Z,10.47
2019-02-10T17:48:55.343Z,16.73
2019-02-10T17:51:25.150Z,17.83
2019-02-10T17:53:54.830Z,11.37
2019-02-10T17:56:24.879Z,9.47
2019-02-10T17:58:54.769Z,6.43
2019-02-10T18:01:24.573Z,4.63
2019-02-10T18:03:54.415Z,5.10
2019-02-10T18:06:25.374Z,10.73
2019-02-10T18:08:55.259Z,6.50
2019-02-10T18:11:30.937Z,5.77
2019-02-10T18:13:56.522Z,4.73
2019-02-10T18:16:27.873Z,4.17
2019-02-10T18:18:59.242Z,3.93
2019-02-10T18:21:46.136Z,4.20
2019-02-10T18:24:37.825Z,4.53
2019-02-10T18:27:36.066Z,3.77
2019-02-10T18:30:19.150Z,7.20
2019-02-10T18:32:59.277Z,7.03
2019-02-10T18:35:34.261Z,6.10
2019-02-10T18:38:24.108Z,3.87
2019-02-10T18:41:04.616Z,4.50
2019-02-10T18:43:39.715Z,4.00
2019-02-10T18:46:14.910Z,3.63
2019-02-10T18:48:49.170Z,4.13
2019-02-10T18:51:20.602Z,13.23
2019-02-10T18:53:54.699Z,26.40
2019-02-10T18:56:26.103Z,4.33
2019-02-10T18:59:00.501Z,4.00
2019-02-10T19:01:31.935Z,4.80
2019-02-10T19:04:19.287Z,3.83
2019-02-10T19:06:59.537Z,3.40
2019-02-10T19:09:47.049Z,3.00
2019-02-10T19:12:19.420Z,4.07
2019-02-10T19:14:50.856Z,3.47
2019-02-10T19:17:23.822Z,2.53
2019-02-10T19:20:07.104Z,2.80
2019-02-10T19:22:39.060Z,8.33
2019-02-10T19:25:10.709Z,21.13
2019-02-10T19:27:52.284Z,6.00
2019-02-10T19:30:40.256Z,3.47
2019-02-10T19:33:12.879Z,4.10
2019-02-10T19:35:44.336Z,3.03
2019-02-10T19:38:16.878Z,2.83
2019-02-10T19:40:54.716Z,2.70
2019-02-10T19:43:27.067Z,3.60
2019-02-10T19:45:58.339Z,3.47
2019-02-10T19:48:43.966Z,3.30
2019-02-10T19:51:21.428Z,3.93
2019-02-10T19:53:55.649Z,3.00
2019-02-10T19:56:28.312Z,3.10
2019-02-10T19:59:06.793Z,4.50
2019-02-10T20:01:40.974Z,4.10
2019-02-10T20:04:13.537Z,37.80
2019-02-10T20:06:45.004Z,19.43
2019-02-10T20:09:19.252Z,13.83
2019-02-10T20:12:03.969Z,5.53
2019-02-10T20:14:32.668Z,2.90
2019-02-10T20:17:06.753Z,2.67
2019-02-10T20:19:38.080Z,3.30
2019-02-10T20:22:15.751Z,3.73
2019-02-10T20:24:53.380Z,2.50
2019-02-10T20:27:36.953Z,3.00
2019-02-10T20:30:20.420Z,3.00
2019-02-10T20:32:51.734Z,6.07
2019-02-10T20:35:35.254Z,2.80
2019-02-10T20:38:09.551Z,3.07
2019-02-10T20:40:47.270Z,2.10
2019-02-10T20:43:18.637Z,1.70
2019-02-10T20:45:56.057Z,1.40
2019-02-10T20:48:36.387Z,1.90
2019-02-10T20:51:16.656Z,1.57
2019-02-10T20:54:03.065Z,1.50
2019-02-10T20:56:40.377Z,1.50
2019-02-10T20:59:23.915Z,1.60
2019-02-10T21:02:05.464Z,1.97
2019-02-10T21:04:39.899Z,2.20
2019-02-10T21:07:11.250Z,1.53
2019-02-10T21:09:45.376Z,1.80
2019-02-10T21:12:20.847Z,1.93
2019-02-10T21:14:58.277Z,2.00
2019-02-10T21:17:38.405Z,2.03
2019-02-10T21:20:16.127Z,2.17
2019-02-10T21:22:59.798Z,2.30
2019-02-10T21:25:31.149Z,2.60
2019-02-10T21:28:18.792Z,4.03
2019-02-10T21:31:08.296Z,2.80
2019-02-10T21:33:39.612Z,2.20
2019-02-10T21:36:16.777Z,2.00
2019-02-10T21:38:51.113Z,2.13
2019-02-10T21:41:22.425Z,2.50
2019-02-10T21:43:56.583Z,2.60
2019-02-10T21:46:45.925Z,2.93
2019-02-10T21:49:15.672Z,2.43
2019-02-10T21:51:45.502Z,2.70
2019-02-10T21:54:15.311Z,2.27
2019-02-10T21:56:45.106Z,1.90
2019-02-10T21:59:14.986Z,2.23
2019-02-10T22:01:44.801Z,2.27
2019-02-10T22:04:15.794Z,2.00
2019-02-10T22:06:45.612Z,1.40
2019-02-10T22:09:15.420Z,1.80
2019-02-10T22:11:45.243Z,1.73
2019-02-10T22:14:15.096Z,2.40
2019-02-10T22:16:44.873Z,1.90
2019-02-10T22:19:14.686Z,4.30
2019-02-10T22:21:44.470Z,3.10
2019-02-10T22:24:14.982Z,2.70
2019-02-10T22:26:44.790Z,3.47
2019-02-10T22:29:14.545Z,2.30
2019-02-10T22:31:44.361Z,2.20
2019-02-10T22:34:14.168Z,2.10
2019-02-10T22:36:44.174Z,2.60
2019-02-10T22:39:14.467Z,2.60
2019-02-10T22:41:45.901Z,2.87
2019-02-10T22:44:15.704Z,4.77
2019-02-10T22:46:45.381Z,5.20
2019-02-10T22:49:15.140Z,3.60
2019-02-10T22:51:44.909Z,4.00
2019-02-10T22:54:14.667Z,3.47
2019-02-10T22:56:44.327Z,3.80
2019-02-10T22:59:14.113Z,4.13
2019-02-10T23:01:43.954Z,3.97
2019-02-10T23:04:13.702Z,4.00
2019-02-10T23:06:45.066Z,3.70
2019-02-10T23:09:16.506Z,3.60
2019-02-10T23:11:46.684Z,3.60
2019-02-10T23:14:16.484Z,3.10
2019-02-10T23:16:46.232Z,3.03
2019-02-10T23:19:16.446Z,2.80
2019-02-10T23:21:46.610Z,2.50
2019-02-10T23:24:16.723Z,2.80
2019-02-10T23:26:46.512Z,2.90
2019-02-10T23:29:16.319Z,2.10
2019-02-10T23:31:47.204Z,0.60
2019-02-10T23:34:16.906Z,0.30
2019-02-10T23:36:49.049Z,0.37
2019-02-10T23:39:19.659Z,0.20
2019-02-10T23:41:49.442Z,0.20
2019-02-10T23:44:19.210Z,0.20
2019-02-10T23:46:49.661Z,0.20
2019-02-10T23:49:19.381Z,0.10
2019-02-10T23:51:49.292Z,0.10
2019-02-10T23:54:18.892Z,0.10
2019-02-10T23:56:49.680Z,0.10
2019-02-10T23:59:19.435Z,0.03
